createdAt,value
2019-02-27T00:04:02.507Z,8.90
2019-02-27T00:08:11.031Z,8.47
2019-02-27T00:12:19.323Z,9.20
2019-02-27T00:16:26.511Z,8.77
2019-02-27T00:20:36.873Z,9.10
2019-02-27T00:24:41.868Z,8.57
2019-02-27T00:28:48.830Z,9.73
2019-02-27T00:32:55.650Z,9.30
2019-02-27T00:37:02.530Z,10.20
2019-02-27T00:41:11.988Z,11.70
2019-02-27T00:45:17.995Z,11.67
2019-02-27T00:49:24.773Z,10.37
2019-02-27T00:53:31.752Z,11.03
2019-02-27T00:57:38.701Z,10.93
2019-02-27T01:01:47.495Z,9.63
2019-02-27T01:05:54.109Z,9.97
2019-02-27T01:10:01.458Z,9.57
2019-02-27T01:14:11.974Z,10.17
2019-02-27T01:18:18.890Z,10.97
2019-02-27T01:22:25.779Z,10.77
2019-02-27T01:26:32.599Z,9.70
2019-02-27T01:30:39.388Z,9.30
2019-02-27T01:34:46.284Z,9.57
2019-02-27T01:38:53.184Z,9.17
2019-02-27T01:43:00.034Z,10.07
2019-02-27T01:47:06.859Z,9.27
2019-02-27T01:51:13.843Z,8.97
2019-02-27T01:55:22.413Z,10.10
2019-02-27T01:59:29.195Z,9.63
2019-02-27T02:03:36.050Z,9.03
2019-02-27T02:07:44.164Z,9.83
2019-02-27T02:11:50.975Z,9.23
2019-02-27T02:16:34.915Z,10.27
2019-02-27T02:21:01.734Z,9.47
2019-02-27T02:26:01.068Z,9.20
2019-02-27T02:31:18.593Z,9.20
2019-02-27T02:35:59.927Z,9.10
2019-02-27T02:40:54.129Z,9.13
2019-02-27T02:45:41.066Z,8.20
2019-02-27T02:50:40.234Z,8.53
2019-02-27T02:55:57.295Z,8.90
2019-02-27T03:00:39.506Z,8.13
2019-02-27T03:05:46.644Z,8.03
2019-02-27T03:10:22.256Z,8.40
2019-02-27T03:14:58.769Z,9.30
2019-02-27T03:19:43.823Z,8.33
2019-02-27T03:24:47.285Z,9.60
2019-02-27T03:29:40.489Z,10.10
2019-02-27T03:35:27.486Z,8.83
2019-02-27T03:40:19.129Z,10.70
2019-02-27T03:45:32.406Z,10.67
2019-02-27T03:50:29.232Z,10.77
2019-02-27T03:55:31.900Z,10.97
2019-02-27T04:00:10.690Z,9.93
2019-02-27T04:04:57.921Z,8.93
2019-02-27T04:09:09.547Z,8.30
2019-02-27T04:13:16.948Z,8.33
2019-02-27T04:17:30.856Z,8.70
2019-02-27T04:21:37.946Z,8.13
2019-02-27T04:25:44.778Z,8.00
2019-02-27T04:29:51.593Z,8.03
2019-02-27T04:34:00.380Z,7.80
2019-02-27T04:38:07.287Z,7.57
2019-02-27T04:42:14.305Z,8.47
2019-02-27T04:46:21.712Z,8.10
2019-02-27T04:50:30.278Z,9.00
2019-02-27T04:54:41.301Z,8.90
2019-02-27T04:58:46.013Z,8.30
2019-02-27T05:02:53.548Z,8.27
2019-02-27T05:07:01.226Z,9.67
2019-02-27T05:11:08.479Z,9.50
2019-02-27T05:15:16.483Z,8.63
2019-02-27T05:19:26.576Z,9.77
2019-02-27T05:23:35.072Z,9.97
2019-02-27T05:27:42.415Z,9.40
2019-02-27T05:32:08.311Z,10.73
2019-02-27T05:36:16.781Z,9.63
2019-02-27T05:40:25.954Z,10.60
2019-02-27T05:44:32.356Z,9.10
2019-02-27T05:48:39.311Z,10.27
2019-02-27T05:52:48.779Z,11.60
2019-02-27T05:56:56.276Z,14.10
2019-02-27T06:01:04.963Z,15.30
2019-02-27T06:05:11.861Z,13.30
2019-02-27T06:09:19.484Z,13.03
2019-02-27T06:13:26.459Z,11.27
2019-02-27T06:17:43.149Z,10.97
2019-02-27T06:21:42.476Z,10.20
2019-02-27T06:25:49.507Z,11.93
2019-02-27T06:29:57.087Z,13.73
2019-02-27T06:34:05.440Z,11.77
2019-02-27T06:38:12.286Z,10.83
2019-02-27T06:42:19.236Z,12.00
2019-02-27T06:46:26.405Z,12.87
2019-02-27T06:50:34.672Z,15.33
2019-02-27T06:54:41.673Z,13.80
2019-02-27T06:58:50.128Z,15.30
2019-02-27T07:02:57.272Z,13.73
2019-02-27T07:07:04.150Z,12.17
2019-02-27T07:11:11.394Z,11.50
2019-02-27T07:15:19.861Z,9.37
2019-02-27T07:19:27.103Z,8.40
2019-02-27T07:23:35.288Z,8.30
2019-02-27T07:27:43.584Z,8.97
2019-02-27T07:31:52.186Z,9.93
2019-02-27T07:36:03.449Z,9.03
2019-02-27T07:40:11.538Z,8.07
2019-02-27T07:44:18.500Z,8.10
2019-02-27T07:48:25.758Z,8.13
2019-02-27T07:52:33.341Z,8.00
2019-02-27T07:56:46.807Z,7.23
2019-02-27T08:00:53.668Z,7.80
2019-02-27T08:05:00.621Z,7.33
2019-02-27T08:09:08.359Z,8.27
2019-02-27T08:13:15.317Z,8.90
2019-02-27T08:17:23.552Z,10.57
2019-02-27T08:21:30.773Z,9.73
2019-02-27T08:25:37.758Z,9.00
2019-02-27T08:29:44.782Z,9.67
2019-02-27T08:33:51.731Z,10.10
2019-02-27T08:38:02.442Z,9.20
2019-02-27T08:42:08.764Z,9.93
2019-02-27T08:46:15.711Z,9.87
2019-02-27T08:50:22.750Z,8.73
2019-02-27T08:54:33.058Z,8.83
2019-02-27T08:58:38.831Z,9.33
2019-02-27T09:02:46.391Z,8.80
2019-02-27T09:06:53.873Z,8.63
2019-02-27T09:11:05.371Z,9.00
2019-02-27T09:15:10.350Z,8.93
2019-02-27T09:19:17.405Z,9.03
2019-02-27T09:23:24.208Z,9.27
2019-02-27T09:27:32.961Z,8.73
2019-02-27T09:31:50.263Z,9.37
2019-02-27T09:35:48.329Z,8.43
2019-02-27T09:39:55.163Z,8.63
2019-02-27T09:44:02.146Z,8.13
2019-02-27T09:48:09.114Z,9.03
2019-02-27T09:52:16.102Z,9.10
2019-02-27T09:56:22.950Z,8.97
2019-02-27T10:00:38.972Z,7.93
2019-02-27T10:04:46.150Z,9.57
2019-02-27T10:08:53.195Z,9.13
2019-02-27T10:13:03.287Z,11.57
2019-02-27T10:17:10.139Z,10.93
2019-02-27T10:21:17.037Z,12.23
2019-02-27T10:25:23.957Z,10.27
2019-02-27T10:29:30.784Z,10.73
2019-02-27T10:33:39.468Z,10.93
2019-02-27T10:37:50.388Z,10.90
2019-02-27T10:41:55.061Z,12.63
2019-02-27T10:46:02.016Z,12.30
2019-02-27T10:50:09.533Z,11.17
2019-02-27T10:54:16.479Z,11.33
2019-02-27T10:58:24.698Z,12.10
2019-02-27T11:02:31.698Z,11.87
2019-02-27T11:06:40.923Z,11.53
2019-02-27T11:10:47.848Z,11.63
2019-02-27T11:14:55.070Z,11.70
2019-02-27T11:19:03.089Z,11.57
2019-02-27T11:23:09.966Z,11.67
2019-02-27T11:27:16.994Z,11.03
2019-02-27T11:31:24.132Z,12.23
2019-02-27T11:35:31.116Z,11.10
2019-02-27T11:39:37.990Z,11.73
2019-02-27T11:43:45.064Z,11.93
2019-02-27T11:47:52.112Z,11.57
2019-02-27T11:51:59.100Z,12.17
2019-02-27T11:56:05.989Z,11.17
2019-02-27T12:00:24.181Z,12.13
2019-02-27T12:04:31.147Z,11.70
2019-02-27T12:08:38.016Z,11.13
2019-02-27T12:12:44.942Z,12.13
2019-02-27T12:16:52.476Z,10.97
2019-02-27T12:20:59.593Z,10.93
2019-02-27T12:25:07.338Z,10.83
2019-02-27T12:29:14.251Z,11.20
2019-02-27T12:33:21.210Z,11.73
2019-02-27T12:37:31.553Z,12.30
2019-02-27T12:41:37.182Z,10.70
2019-02-27T12:45:44.001Z,11.57
2019-02-27T12:49:51.542Z,11.83
2019-02-27T12:53:59.640Z,12.60
2019-02-27T12:58:13.473Z,12.77
2019-02-27T13:02:24.420Z,11.50
2019-02-27T13:06:29.165Z,12.80
2019-02-27T13:10:36.018Z,12.30
2019-02-27T13:14:43.005Z,11.40
2019-02-27T13:18:49.926Z,12.30
2019-02-27T13:22:56.854Z,13.53
2019-02-27T13:27:06.542Z,12.20
2019-02-27T13:31:20.127Z,11.20
2019-02-27T13:35:28.693Z,10.73
2019-02-27T13:39:35.793Z,9.57
2019-02-27T13:43:42.633Z,9.80
2019-02-27T13:47:49.492Z,9.53
2019-02-27T13:51:56.316Z,9.03
2019-02-27T13:56:03.127Z,10.33
2019-02-27T14:00:21.540Z,9.20
2019-02-27T14:04:28.645Z,11.53
2019-02-27T14:08:35.517Z,9.50
2019-02-27T14:12:42.413Z,10.87
2019-02-27T14:16:49.382Z,10.60
2019-02-27T14:20:56.219Z,11.13
2019-02-27T14:25:03.075Z,11.47
2019-02-27T14:29:21.978Z,11.07
2019-02-27T14:33:28.830Z,11.33
2019-02-27T14:37:35.695Z,11.57
2019-02-27T14:41:42.621Z,11.90
2019-02-27T14:45:50.813Z,10.53
2019-02-27T14:49:59.395Z,10.20
2019-02-27T14:54:06.430Z,10.53
2019-02-27T14:58:13.351Z,8.30
2019-02-27T15:02:22.421Z,10.50
2019-02-27T15:06:29.358Z,9.07
2019-02-27T15:10:40.261Z,10.00
2019-02-27T15:14:46.164Z,10.77
2019-02-27T15:18:55.823Z,8.20
2019-02-27T15:23:01.693Z,8.63
2019-02-27T15:27:08.708Z,8.57
2019-02-27T15:31:18.123Z,8.60
2019-02-27T15:35:28.333Z,6.40
2019-02-27T15:39:35.351Z,6.10
2019-02-27T15:43:42.322Z,5.50
2019-02-27T15:47:49.404Z,6.17
2019-02-27T15:51:56.408Z,5.97
2019-02-27T15:56:05.481Z,6.07
2019-02-27T16:00:18.493Z,5.53
2019-02-27T16:04:25.430Z,6.13
2019-02-27T16:08:32.360Z,5.50
2019-02-27T16:12:39.388Z,5.80
2019-02-27T16:16:47.608Z,5.60
2019-02-27T16:20:54.853Z,5.13
2019-02-27T16:25:01.724Z,6.03
2019-02-27T16:29:09.124Z,5.67
2019-02-27T16:33:23.144Z,6.13
2019-02-27T16:37:25.767Z,6.60
2019-02-27T16:41:32.940Z,6.60
2019-02-27T16:45:40.570Z,7.20
2019-02-27T16:50:00.515Z,8.03
2019-02-27T16:54:08.444Z,7.70
2019-02-27T16:58:15.378Z,6.10
2019-02-27T17:02:22.275Z,5.63
2019-02-27T17:06:29.352Z,5.67
2019-02-27T17:10:36.591Z,6.03
2019-02-27T17:14:45.069Z,8.07
2019-02-27T17:18:52.081Z,6.53
2019-02-27T17:22:58.970Z,9.57
2019-02-27T17:27:05.963Z,7.07
2019-02-27T17:31:12.988Z,6.30
2019-02-27T17:35:23.601Z,7.30
2019-02-27T17:39:30.883Z,6.13
2019-02-27T17:43:38.074Z,8.30
2019-02-27T17:47:45.168Z,10.80
2019-02-27T17:51:52.205Z,10.80
2019-02-27T17:55:59.481Z,9.67
2019-02-27T18:00:19.268Z,10.13
2019-02-27T18:04:26.387Z,10.07
2019-02-27T18:08:33.525Z,10.00
2019-02-27T18:12:40.667Z,10.10
2019-02-27T18:16:47.826Z,12.37
2019-02-27T18:20:56.734Z,18.57
2019-02-27T18:25:07.443Z,15.23
2019-02-27T18:29:15.295Z,11.87
2019-02-27T18:33:22.204Z,13.80
2019-02-27T18:37:29.721Z,12.80
2019-02-27T18:41:36.850Z,11.30
2019-02-27T18:45:43.728Z,11.50
2019-02-27T18:49:52.188Z,11.67
2019-02-27T18:53:59.402Z,11.70
2019-02-27T18:58:06.541Z,13.23
2019-02-27T19:02:13.875Z,13.23
2019-02-27T19:06:21.171Z,12.80
2019-02-27T19:10:28.239Z,12.67
2019-02-27T19:14:36.781Z,13.33
2019-02-27T19:18:44.477Z,12.20
2019-02-27T19:22:51.884Z,11.80
2019-02-27T19:26:59.078Z,13.30
2019-02-27T19:31:06.394Z,14.80
2019-02-27T19:35:14.825Z,15.20
2019-02-27T19:39:22.529Z,15.27
2019-02-27T19:43:29.868Z,13.97
2019-02-27T19:47:36.790Z,13.37
2019-02-27T19:51:45.062Z,13.43
2019-02-27T19:55:52.299Z,13.00
2019-02-27T19:59:59.783Z,12.00
2019-02-27T20:04:09.650Z,19.40
2019-02-27T20:08:16.168Z,15.63
2019-02-27T20:12:23.124Z,15.60
2019-02-27T20:16:32.386Z,15.83
2019-02-27T20:20:41.154Z,14.87
2019-02-27T20:24:50.465Z,15.17
2019-02-27T20:28:58.037Z,16.83
2019-02-27T20:33:12.337Z,17.60
2019-02-27T20:37:20.312Z,18.43
2019-02-27T20:41:31.270Z,16.53
2019-02-27T20:45:40.021Z,15.80
2019-02-27T20:49:51.025Z,16.47
2019-02-27T20:53:58.193Z,15.30
2019-02-27T20:58:05.196Z,15.90
2019-02-27T21:02:12.338Z,14.33
2019-02-27T21:06:21.746Z,14.20
2019-02-27T21:10:28.796Z,12.90
2019-02-27T21:14:35.774Z,12.27
2019-02-27T21:18:42.867Z,11.47
2019-02-27T21:22:49.832Z,11.23
2019-02-27T21:26:57.335Z,12.00
2019-02-27T21:31:05.407Z,12.17
2019-02-27T21:35:12.814Z,12.03
2019-02-27T21:39:22.563Z,12.43
2019-02-27T21:43:29.921Z,10.90
2019-02-27T21:47:40.163Z,11.90
2019-02-27T21:51:48.092Z,11.50
2019-02-27T21:56:03.938Z,11.60
2019-02-27T22:00:17.544Z,11.00
2019-02-27T22:04:24.733Z,11.17
2019-02-27T22:08:31.677Z,11.53
2019-02-27T22:12:38.612Z,11.53
2019-02-27T22:16:45.609Z,11.80
2019-02-27T22:20:52.536Z,11.67
2019-02-27T22:24:59.639Z,11.83
2019-02-27T22:29:07.787Z,12.77
2019-02-27T22:33:14.736Z,11.73
2019-02-27T22:37:21.715Z,10.77
2019-02-27T22:41:28.536Z,11.50
2019-02-27T22:45:40.484Z,13.03
2019-02-27T22:49:45.008Z,12.27
2019-02-27T22:53:51.978Z,11.90
2019-02-27T22:57:58.855Z,11.10
2019-02-27T23:02:07.107Z,11.50
2019-02-27T23:06:14.205Z,11.27
2019-02-27T23:10:21.254Z,11.80
2019-02-27T23:14:28.375Z,11.60
2019-02-27T23:18:37.472Z,13.13
2019-02-27T23:22:43.832Z,11.70
2019-02-27T23:26:54.364Z,11.23
2019-02-27T23:30:59.552Z,13.17
2019-02-27T23:35:06.641Z,12.73
2019-02-27T23:39:13.515Z,12.93
2019-02-27T23:43:20.495Z,14.07
2019-02-27T23:47:28.762Z,12.53
2019-02-27T23:51:35.932Z,13.63
2019-02-27T23:55:44.582Z,12.33
2019-02-27T23:59:51.375Z,12.00
